Tumeremo, Venezuela
Current Conditions -  °F | °C
As of 5:00 AM on Monday 22 Dec 2014 (Local Time) from SYCJ Reporting Station
Broken Clouds Broken Clouds  
Wind Chill: 75°   Ceiling: 1100
Heat Index: 75°   Visibility: 6mi
Dew Point: 75°   Wind: 2mph
Humidity: 100%   Direction: NA
Pressure: 29.88"   Gusts: NA
Location:  7.29°N, 61.48°W
Report Text: SYCJ 220900Z VRB02KT 9999 BKN011 SCT036 24/24 Q1012 NOSIG
Loading
Personal Weather Stations






























Interactive Weather Map New forecast layout! Learn more

10-Day Weather Forecast

Advertisements
Track Severe Weather on mobile